Time;durP1;ratioP1;P1;durP2;ratioP2;P2;SDS_P1;SDS_P2;PMS_P1;PMS_P2;Temp;Humidity;BMP_temperature;BMP_pressure;BME280_temperature;BME280_humidity;BME280_pressure;Samples;Min_cycle;Max_cycle;Signal;HPM_P1;HPM_P2
2022/05/05 00:01:54;;;;;;;14.47;9.70;;;11.40;99.90;;;;;;5039644;28;20209;-94
2022/05/05 00:04:23;;;;;;;14.13;9.07;;;11.40;99.90;;;;;;5054811;28;20199;-91
2022/05/05 00:06:52;;;;;;;12.87;9.30;;;11.40;99.90;;;;;;5020872;28;20225;-93
2022/05/05 00:09:22;;;;;;;13.60;9.97;;;11.40;99.90;;;;;;5002940;28;20283;-92
2022/05/05 00:14:57;;;;;;;17.67;9.87;;;11.50;99.90;;;;;;5002232;28;20189;-92
2022/05/05 00:17:26;;;;;;;18.93;10.00;;;11.50;99.90;;;;;;5035647;28;20185;-92
2022/05/05 00:19:54;;;;;;;16.67;9.70;;;11.50;99.90;;;;;;5035328;28;20607;-93
2022/05/05 00:22:24;;;;;;;13.93;9.87;;;11.50;99.90;;;;;;5002091;28;20225;-93
2022/05/05 00:24:53;;;;;;;14.93;9.60;;;11.50;99.90;;;;;;5034475;28;20193;-91
2022/05/05 00:27:22;;;;;;;16.03;10.33;;;11.50;99.90;;;;;;5001950;28;20244;-94
2022/05/05 00:29:51;;;;;;;16.57;10.90;;;11.50;99.90;;;;;;5002142;28;20190;-92
2022/05/05 00:32:22;;;;;;;14.13;10.40;;;11.40;99.90;;;;;;5002587;28;20705;-93
2022/05/05 00:34:50;;;;;;;14.67;9.50;;;11.40;99.90;;;;;;5018424;28;20190;-92
2022/05/05 00:37:19;;;;;;;16.43;10.73;;;11.40;99.90;;;;;;5034245;28;20330;-93
2022/05/05 00:39:48;;;;;;;17.27;10.27;;;11.40;99.90;;;;;;5018229;28;20198;-91
2022/05/05 00:42:18;;;;;;;16.97;10.37;;;11.40;99.90;;;;;;5001488;28;20193;-92
2022/05/05 00:44:46;;;;;;;15.17;10.90;;;11.40;99.90;;;;;;5034642;28;20232;-91
2022/05/05 00:47:17;;;;;;;17.70;11.27;;;11.40;99.90;;;;;;5018364;28;20227;-93
2022/05/05 00:49:49;;;;;;;16.47;10.93;;;11.40;99.90;;;;;;5018181;28;20198;-93
2022/05/05 00:52:18;;;;;;;21.43;11.03;;;11.40;99.90;;;;;;5034750;28;20184;-93
2022/05/05 00:54:47;;;;;;;17.10;11.07;;;11.40;99.90;;;;;;5001509;28;20224;-92
2022/05/05 00:57:16;;;;;;;18.70;10.73;;;11.40;99.90;;;;;;5017885;28;20190;-92
2022/05/05 00:59:45;;;;;;;16.40;10.57;;;11.40;99.90;;;;;;5048202;28;20218;-92
2022/05/05 01:07:01;;;;;;;19.00;11.47;;;11.40;99.90;;;;;;5035160;28;20156;-94
2022/05/05 01:09:30;;;;;;;19.77;11.07;;;11.40;99.90;;;;;;5034897;28;20221;-92
2022/05/05 01:11:58;;;;;;;18.53;11.23;;;11.40;99.90;;;;;;5001774;28;20244;-92
2022/05/05 01:14:27;;;;;;;21.27;12.40;;;11.40;99.90;;;;;;5018305;28;20224;-93
2022/05/05 01:16:56;;;;;;;18.10;11.83;;;11.40;99.90;;;;;;5001490;28;20200;-93
2022/05/05 01:19:25;;;;;;;19.53;12.97;;;11.50;99.90;;;;;;5014621;28;20179;-92
2022/05/05 01:22:00;;;;;;;27.97;13.30;;;11.50;99.90;;;;;;5047820;28;20581;-92
2022/05/05 01:29:57;;;;;;;17.80;12.43;;;11.50;99.90;;;;;;5005093;28;20221;-92
2022/05/05 01:32:31;;;;;;;19.20;12.23;;;11.50;99.90;;;;;;5021047;28;20562;-94
2022/05/05 01:35:00;;;;;;;19.77;13.03;;;11.50;99.90;;;;;;5005657;28;20553;-92
2022/05/05 01:37:30;;;;;;;22.37;13.07;;;11.50;99.90;;;;;;5004916;28;20189;-91
2022/05/05 01:39:59;;;;;;;22.57;13.90;;;11.50;99.90;;;;;;5037593;28;20551;-93
2022/05/05 01:42:28;;;;;;;19.43;12.90;;;11.50;99.90;;;;;;5021205;28;20197;-93
2022/05/05 01:44:57;;;;;;;22.57;13.00;;;11.50;99.90;;;;;;5004534;28;20693;-93
2022/05/05 01:47:26;;;;;;;24.17;12.70;;;11.50;99.90;;;;;;5004830;28;20189;-92
2022/05/05 01:49:58;;;;;;;25.80;14.07;;;11.50;99.90;;;;;;5054387;28;20217;-94
2022/05/05 01:52:29;;;;;;;21.40;14.20;;;11.50;99.90;;;;;;5020986;28;20244;-93
2022/05/05 01:54:59;;;;;;;21.70;13.00;;;11.50;99.90;;;;;;5004642;28;20272;-93
2022/05/05 01:57:28;;;;;;;25.80;15.50;;;11.50;99.90;;;;;;5004372;28;20232;-92
2022/05/05 01:59:56;;;;;;;24.20;15.17;;;11.50;99.90;;;;;;5004239;28;20224;-94
2022/05/05 02:07:10;;;;;;;26.20;16.03;;;11.50;99.90;;;;;;5038363;28;20203;-92
2022/05/05 02:09:40;;;;;;;28.30;15.97;;;11.40;99.90;;;;;;5021238;28;20213;-92
2022/05/05 02:12:10;;;;;;;30.50;17.87;;;11.40;99.90;;;;;;5020581;28;20627;-93
2022/05/05 02:14:39;;;;;;;30.13;16.40;;;11.40;99.90;;;;;;5020501;28;20189;-93
2022/05/05 02:17:09;;;;;;;26.07;16.13;;;11.40;99.90;;;;;;5037529;28;20297;-94
2022/05/05 02:19:41;;;;;;;29.97;16.90;;;11.50;99.90;;;;;;5020449;28;20240;-92
2022/05/05 02:22:09;;;;;;;36.57;18.00;;;11.50;99.90;;;;;;5004794;28;20216;-93
2022/05/05 02:24:38;;;;;;;26.73;17.13;;;11.50;99.90;;;;;;5003800;28;20654;-93
2022/05/05 02:27:08;;;;;;;30.53;17.40;;;11.50;99.90;;;;;;5036391;28;20237;-93
2022/05/05 02:29:37;;;;;;;32.57;18.23;;;11.50;99.90;;;;;;5019937;28;20219;-93
2022/05/05 02:32:09;;;;;;;31.07;17.40;;;11.50;99.90;;;;;;5037456;28;20631;-92
2022/05/05 02:34:38;;;;;;;33.93;18.10;;;11.50;99.90;;;;;;5036693;28;20255;-93
2022/05/05 02:39:55;;;;;;;35.07;18.60;;;11.50;99.90;;;;;;5004416;28;20185;-92
2022/05/05 02:42:26;;;;;;;30.10;18.23;;;11.50;99.90;;;;;;5019879;28;20558;-92
2022/05/05 02:44:54;;;;;;;35.50;20.77;;;11.50;99.90;;;;;;5020701;28;20189;-92
2022/05/05 02:47:23;;;;;;;36.03;20.33;;;11.50;99.90;;;;;;5053056;28;20232;-91
2022/05/05 02:49:52;;;;;;;31.97;19.97;;;11.50;99.90;;;;;;5019871;28;20222;-93
2022/05/05 02:52:21;;;;;;;33.50;20.73;;;11.50;99.90;;;;;;5003700;28;20201;-92
2022/05/05 02:54:51;;;;;;;38.77;22.83;;;11.50;99.90;;;;;;5020092;28;20193;-92
2022/05/05 02:57:20;;;;;;;45.40;24.07;;;11.50;99.90;;;;;;5003329;28;20189;-93
2022/05/05 02:59:51;;;;;;;47.50;24.47;;;11.60;99.90;;;;;;5003484;28;20280;-91
2022/05/05 03:02:21;;;;;;;49.53;26.10;;;11.60;99.90;;;;;;5003286;28;20200;-91
2022/05/05 03:04:49;;;;;;;44.13;24.97;;;11.60;99.90;;;;;;5003435;28;20194;-92
2022/05/05 03:07:18;;;;;;;45.03;25.53;;;11.60;99.90;;;;;;5019421;28;20189;-91
2022/05/05 03:09:47;;;;;;;48.50;25.63;;;11.60;99.90;;;;;;5036041;28;20219;-93
2022/05/05 03:12:16;;;;;;;45.83;25.10;;;11.70;99.90;;;;;;5036076;28;20705;-93
2022/05/05 03:14:46;;;;;;;45.70;26.83;;;11.60;99.90;;;;;;5003380;28;20208;-92
2022/05/05 03:17:16;;;;;;;43.50;24.77;;;11.60;99.90;;;;;;5019916;28;20711;-91
2022/05/05 03:19:45;;;;;;;48.10;26.77;;;11.60;99.90;;;;;;5019364;28;20269;-93
2022/05/05 03:22:14;;;;;;;47.37;26.40;;;11.70;99.90;;;;;;5002587;28;20224;-93
2022/05/05 03:24:43;;;;;;;45.37;25.43;;;11.70;99.90;;;;;;5019134;28;20559;-93
2022/05/05 03:27:11;;;;;;;52.27;27.60;;;11.70;99.90;;;;;;5052596;28;20237;-94
2022/05/05 03:29:40;;;;;;;47.40;25.30;;;11.70;99.90;;;;;;5004421;28;20217;-92
2022/05/05 03:32:09;;;;;;;46.47;26.17;;;11.70;99.90;;;;;;5004251;28;20193;-95
2022/05/05 03:34:41;;;;;;;48.10;25.93;;;11.70;99.90;;;;;;5052827;28;20228;-93
2022/05/05 03:37:11;;;;;;;50.60;27.17;;;11.60;99.90;;;;;;5002907;28;20723;-93
2022/05/05 03:39:39;;;;;;;45.27;25.83;;;11.70;99.90;;;;;;5002438;28;20189;-94
2022/05/05 03:42:08;;;;;;;47.27;25.90;;;11.60;99.90;;;;;;5002914;28;20333;-92
2022/05/05 03:44:37;;;;;;;48.73;26.33;;;11.60;99.90;;;;;;5002668;28;20194;-93
2022/05/05 03:47:07;;;;;;;48.90;25.57;;;11.70;99.90;;;;;;5051882;28;20200;-92
2022/05/05 03:49:35;;;;;;;46.93;25.83;;;11.70;99.90;;;;;;5052031;28;20227;-92
2022/05/05 03:52:06;;;;;;;52.63;27.47;;;11.70;99.90;;;;;;5018762;28;20197;-91
2022/05/05 03:54:35;;;;;;;52.47;27.17;;;11.80;99.90;;;;;;5019422;28;20292;-93
2022/05/05 03:57:04;;;;;;;50.30;27.13;;;11.80;99.90;;;;;;5018795;28;20189;-93
2022/05/05 03:59:33;;;;;;;57.73;29.50;;;11.80;99.90;;;;;;5002827;28;20213;-92
2022/05/05 04:02:02;;;;;;;56.50;29.63;;;11.70;99.90;;;;;;5052002;28;20193;-92
2022/05/05 04:04:31;;;;;;;59.37;29.83;;;11.70;99.90;;;;;;5002912;28;20257;-94
2022/05/05 04:07:00;;;;;;;55.87;28.63;;;11.70;99.90;;;;;;5019293;28;20601;-93
2022/05/05 04:09:30;;;;;;;61.60;31.50;;;11.70;99.90;;;;;;5004743;28;20732;-92
2022/05/05 04:11:58;;;;;;;64.20;31.13;;;11.60;99.90;;;;;;5054565;28;20670;-93
2022/05/05 04:14:27;;;;;;;69.33;32.17;;;11.70;99.90;;;;;;5007349;28;20192;-93
2022/05/05 04:17:36;;;;;;;61.40;31.27;;;11.60;99.90;;;;;;5041543;28;20184;-92
2022/05/05 04:20:47;;;;;;;67.30;31.57;;;11.60;99.90;;;;;;5039618;28;20181;-93
2022/05/05 04:23:56;;;;;;;62.27;31.33;;;11.60;99.90;;;;;;5038048;28;20197;-95
2022/05/05 04:27:06;;;;;;;62.43;30.13;;;11.60;99.90;;;;;;5036524;28;20261;-91
2022/05/05 04:30:16;;;;;;;56.63;28.47;;;11.60;99.90;;;;;;5036421;28;20572;-93
2022/05/05 04:33:25;;;;;;;62.90;30.87;;;11.60;99.90;;;;;;5036139;28;20227;-93
2022/05/05 04:36:35;;;;;;;63.47;30.10;;;11.60;99.90;;;;;;5036862;28;20640;-93
2022/05/05 04:39:43;;;;;;;55.70;29.20;;;11.60;99.90;;;;;;5038073;28;20173;-92
2022/05/05 04:42:54;;;;;;;65.87;30.83;;;11.60;99.90;;;;;;5037850;28;20178;-92
2022/05/05 04:46:03;;;;;;;60.70;29.47;;;11.60;99.90;;;;;;5037216;28;20180;-93
2022/05/05 04:49:12;;;;;;;58.00;30.17;;;11.60;99.90;;;;;;5035526;28;20196;-92
2022/05/05 04:52:21;;;;;;;56.40;28.00;;;11.50;99.90;;;;;;5035618;28;20221;-92
2022/05/05 04:55:30;;;;;;;64.67;29.93;;;11.50;99.90;;;;;;5035370;28;20181;-92
2022/05/05 04:58:41;;;;;;;58.00;29.17;;;11.60;99.90;;;;;;5035293;28;20217;-93
2022/05/05 05:01:49;;;;;;;58.67;29.07;;;11.60;99.90;;;;;;5039292;28;20597;-92
2022/05/05 05:05:02;;;;;;;61.93;30.20;;;11.60;99.90;;;;;;5039401;28;20267;-93
2022/05/05 05:08:02;;;;;;;55.20;29.23;;;11.60;99.90;;;;;;5026933;28;20190;-94
2022/05/05 05:10:51;;;;;;;55.20;30.30;;;11.60;99.90;;;;;;5038746;28;20201;-91
2022/05/05 05:13:41;;;;;;;68.13;32.20;;;11.60;99.90;;;;;;5039147;28;20181;-92
2022/05/05 05:16:30;;;;;;;63.67;29.90;;;11.70;99.90;;;;;;5039441;28;20257;-94
2022/05/05 05:19:29;;;;;;;54.63;29.73;;;11.70;99.90;;;;;;5038873;28;20745;-94
2022/05/05 05:22:18;;;;;;;58.40;29.70;;;11.80;99.90;;;;;;5039449;28;20240;-93
2022/05/05 05:25:07;;;;;;;61.90;31.00;;;11.90;99.90;;;;;;5039072;28;20186;-92
2022/05/05 05:27:57;;;;;;;58.93;29.63;;;12.00;99.90;;;;;;5038926;28;20320;-91
2022/05/05 05:31:00;;;;;;;64.20;32.43;;;12.10;99.90;;;;;;5038674;28;20217;-95
2022/05/05 05:33:50;;;;;;;60.73;31.33;;;12.20;99.90;;;;;;5039052;28;20181;-92
2022/05/05 05:41:00;;;;;;;61.43;31.17;;;12.40;99.90;;;;;;5038175;28;20185;-92
2022/05/05 05:43:49;;;;;;;59.20;30.67;;;12.40;99.90;;;;;;5038664;28;20236;-92
2022/05/05 05:46:40;;;;;;;63.93;31.50;;;12.50;99.90;;;;;;5038794;28;20218;-91
2022/05/05 05:49:29;;;;;;;58.93;31.47;;;12.60;99.90;;;;;;5038541;28;20178;-93
2022/05/05 05:52:18;;;;;;;58.97;30.70;;;12.60;99.90;;;;;;5038619;28;20190;-92
2022/05/05 05:55:07;;;;;;;55.50;29.73;;;12.60;99.90;;;;;;5039177;28;20602;-93
2022/05/05 05:57:56;;;;;;;56.77;29.97;;;12.60;99.90;;;;;;5038533;28;20357;-93
2022/05/05 06:00:45;;;;;;;59.70;30.87;;;12.60;99.90;;;;;;5037851;28;20214;-93
2022/05/05 06:06:41;;;;;;;57.60;30.23;;;12.70;99.90;;;;;;5038090;28;20670;-91
2022/05/05 06:09:29;;;;;;;60.23;31.63;;;12.70;99.90;;;;;;5038317;28;20182;-95
2022/05/05 06:12:21;;;;;;;63.83;32.10;;;12.80;99.90;;;;;;5038228;28;20233;-92
2022/05/05 06:15:10;;;;;;;68.20;32.00;;;12.80;99.90;;;;;;5038571;28;20214;-93
2022/05/05 06:17:59;;;;;;;62.80;32.03;;;12.90;99.90;;;;;;5037917;28;20213;-94
2022/05/05 06:20:49;;;;;;;59.93;31.37;;;12.90;99.90;;;;;;5038039;28;20186;-91
2022/05/05 06:23:38;;;;;;;63.23;32.53;;;13.00;99.90;;;;;;5037958;28;20209;-92
2022/05/05 06:26:27;;;;;;;60.50;31.37;;;13.00;99.90;;;;;;5037601;28;20702;-92
2022/05/05 06:29:16;;;;;;;61.70;30.63;;;13.10;99.90;;;;;;5037734;28;20193;-92
2022/05/05 06:32:06;;;;;;;68.40;32.03;;;13.10;99.90;;;;;;5037729;28;20239;-92
2022/05/05 06:34:55;;;;;;;59.83;31.20;;;13.10;99.90;;;;;;5037773;28;20236;-91
2022/05/05 06:37:50;;;;;;;62.60;30.70;;;13.00;99.90;;;;;;5037767;28;20279;-92
2022/05/05 06:40:40;;;;;;;59.40;30.03;;;13.10;99.90;;;;;;5037879;28;20593;-92
2022/05/05 06:43:29;;;;;;;59.57;30.20;;;13.10;99.90;;;;;;5037766;28;20236;-92
2022/05/05 06:46:18;;;;;;;60.50;30.63;;;13.10;99.90;;;;;;5041346;28;20243;-94
2022/05/05 06:49:18;;;;;;;57.63;30.40;;;13.20;99.90;;;;;;5075851;28;20246;-91
2022/05/05 06:52:05;;;;;;;58.40;30.00;;;13.20;99.90;;;;;;5066765;28;20204;-92
2022/05/05 06:54:55;;;;;;;54.70;30.10;;;13.30;99.90;;;;;;5057190;28;20201;-93
2022/05/05 06:57:24;;;;;;;59.17;31.00;;;13.40;99.90;;;;;;5057723;28;20255;-92
2022/05/05 06:59:53;;;;;;;57.70;30.83;;;13.50;99.90;;;;;;5057790;28;20515;-92
2022/05/05 07:02:29;;;;;;;57.57;31.10;;;13.50;99.90;;;;;;5057166;28;20529;-93
2022/05/05 07:07:44;;;;;;;59.43;30.83;;;13.60;99.90;;;;;;5057201;28;20228;-92
2022/05/05 07:13:05;;;;;;;51.07;27.70;;;13.60;99.90;;;;;;5056633;28;20200;-92
2022/05/05 07:15:35;;;;;;;55.40;28.73;;;13.80;99.90;;;;;;5056862;28;20574;-92
2022/05/05 07:18:42;;;;;;;52.63;29.73;;;14.10;99.90;;;;;;5075279;28;20257;-94
2022/05/05 07:21:51;;;;;;;55.30;29.77;;;14.30;99.90;;;;;;5075826;28;20208;-94
2022/05/05 07:25:00;;;;;;;51.07;29.10;;;14.50;99.90;;;;;;5076651;28;20216;-92
2022/05/05 07:28:12;;;;;;;52.07;29.20;;;14.70;99.90;;;;;;5076852;28;20232;-91
2022/05/05 07:31:21;;;;;;;47.60;27.37;;;14.90;99.90;;;;;;5076547;28;20652;-93
2022/05/05 07:34:30;;;;;;;45.30;27.57;;;15.10;99.90;;;;;;5077155;28;20181;-95
2022/05/05 07:37:39;;;;;;;48.73;27.93;;;15.00;99.90;;;;;;5076987;28;20653;-95
2022/05/05 07:40:48;;;;;;;48.27;29.13;;;15.10;99.90;;;;;;5077530;28;20234;-95
2022/05/05 07:44:00;;;;;;;47.50;27.60;;;15.20;99.90;;;;;;5080428;28;20185;-94
2022/05/05 07:47:09;;;;;;;45.50;28.30;;;15.50;99.90;;;;;;5080333;28;20197;-95
2022/05/05 07:50:18;;;;;;;42.10;25.83;;;15.80;99.90;;;;;;5078750;28;20206;-95
2022/05/05 07:53:28;;;;;;;42.00;26.23;;;16.00;99.90;;;;;;5079023;28;20217;-94
2022/05/05 07:56:39;;;;;;;43.50;26.50;;;16.00;99.90;;;;;;5083184;28;20212;-95
2022/05/05 07:59:55;;;;;;;39.27;25.57;;;16.30;99.90;;;;;;5085577;28;20659;-95
2022/05/05 08:03:18;;;;;;;43.13;25.40;;;16.50;99.90;;;;;;5086601;28;20176;-95
2022/05/05 08:06:37;;;;;;;31.13;20.73;;;16.70;99.90;;;;;;5085808;28;20237;-94
2022/05/05 08:09:54;;;;;;;28.03;19.70;;;17.00;99.90;;;;;;5090068;28;20418;-95
2022/05/05 08:13:09;;;;;;;29.37;18.73;;;17.50;99.90;;;;;;5087663;28;20224;-95
2022/05/05 08:16:28;;;;;;;29.13;19.57;;;17.70;99.90;;;;;;5089019;28;20181;-95
2022/05/05 08:19:39;;;;;;;28.70;19.70;;;17.80;99.90;;;;;;5089109;28;20184;-94
2022/05/05 08:22:51;;;;;;;28.50;19.37;;;17.80;99.90;;;;;;5063229;28;20216;-96
2022/05/05 08:28:31;;;;;;;28.20;19.33;;;18.10;99.90;;;;;;5057904;28;20640;-95
2022/05/05 08:31:00;;;;;;;33.70;20.03;;;18.20;99.90;;;;;;5040943;28;20189;-93
2022/05/05 08:33:31;;;;;;;32.40;21.23;;;18.40;99.90;;;;;;5059212;28;20264;-95
2022/05/05 08:36:00;;;;;;;29.80;19.90;;;18.10;99.90;;;;;;5048943;28;20196;-95
2022/05/05 08:38:31;;;;;;;29.77;19.93;;;17.60;99.90;;;;;;5051273;28;20531;-95
2022/05/05 08:41:00;;;;;;;25.90;18.20;;;17.30;99.90;;;;;;5051631;28;20211;-93
2022/05/05 08:43:49;;;;;;;22.83;16.87;;;17.10;99.90;;;;;;5050274;28;20266;-93
2022/05/05 08:46:43;;;;;;;25.00;17.93;;;17.00;99.90;;;;;;5065446;28;20215;-94
2022/05/05 08:49:27;;;;;;;24.77;17.73;;;17.20;99.90;;;;;;5048615;28;20188;-95
2022/05/05 08:52:09;;;;;;;23.23;16.87;;;17.70;99.90;;;;;;5045291;28;20240;-95
2022/05/05 08:57:46;;;;;;;22.50;16.93;;;18.10;99.90;;;;;;5043659;28;20193;-96
2022/05/05 09:05:06;;;;;;;23.20;16.30;;;18.10;99.90;;;;;;4999681;28;20194;-94
2022/05/05 09:07:53;;;;;;;22.73;16.13;;;18.20;99.90;;;;;;5000673;28;20195;-95
2022/05/05 09:10:44;;;;;;;24.40;15.83;;;18.50;99.90;;;;;;5039157;28;20201;-96
2022/05/05 09:13:25;;;;;;;20.17;16.03;;;18.60;99.90;;;;;;5043439;28;20209;-94
2022/05/05 09:16:08;;;;;;;24.77;15.80;;;18.70;99.90;;;;;;5064287;28;20199;-94
2022/05/05 09:18:42;;;;;;;20.90;15.27;;;18.90;99.90;;;;;;5045278;28;20232;-94
2022/05/05 09:21:13;;;;;;;20.90;15.53;;;19.10;99.90;;;;;;5044789;28;20279;-94
2022/05/05 09:28:46;;;;;;;17.70;14.03;;;19.10;99.90;;;;;;5066684;28;20220;-95
2022/05/05 09:32:24;;;;;;;20.73;14.20;;;18.50;99.90;;;;;;5073429;28;20208;-94
2022/05/05 10:17:45;;;;;;;24.10;17.17;;;20.10;99.90;;;;;;4942946;22;20307;-62
2022/05/05 10:20:54;;;;;;;26.47;18.57;;;19.60;99.90;;;;;;5007664;28;20320;-63
2022/05/05 10:23:31;;;;;;;26.63;18.43;;;19.20;99.90;;;;;;5000416;28;20702;-63
2022/05/05 10:26:01;;;;;;;24.53;18.27;;;19.10;99.90;;;;;;5030952;28;20200;-63
2022/05/05 10:28:44;;;;;;;27.37;18.33;;;18.80;99.90;;;;;;5007102;28;20198;-63
2022/05/05 10:31:14;;;;;;;28.97;19.80;;;18.40;99.90;;;;;;5020166;28;20212;-63
2022/05/05 10:34:06;;;;;;;29.57;19.47;;;18.30;99.90;;;;;;5025999;28;20773;-63
2022/05/05 10:36:36;;;;;;;30.60;20.03;;;18.20;99.90;;;;;;5021576;28;20197;-62
2022/05/05 10:39:18;;;;;;;32.73;19.67;;;18.10;99.90;;;;;;5025944;28;20276;-63
2022/05/05 10:41:47;;;;;;;30.60;19.03;;;18.10;99.90;;;;;;5024295;28;20205;-62
2022/05/05 10:44:25;;;;;;;27.10;19.53;;;18.00;99.90;;;;;;5027028;28;20228;-63
2022/05/05 10:46:59;;;;;;;28.37;18.57;;;18.00;99.90;;;;;;5008501;28;20559;-63
2022/05/05 10:49:49;;;;;;;29.80;19.87;;;18.00;99.90;;;;;;5028436;28;20200;-63
2022/05/05 10:52:31;;;;;;;28.53;19.33;;;18.00;99.90;;;;;;5021110;28;20197;-62
2022/05/05 10:55:24;;;;;;;29.60;19.53;;;18.20;99.90;;;;;;5009380;28;20200;-62
2022/05/05 10:58:12;;;;;;;28.70;18.40;;;18.40;99.90;;;;;;5039656;28;20197;-62
2022/05/05 11:00:42;;;;;;;26.47;18.40;;;18.50;99.90;;;;;;5024195;28;20232;-62
2022/05/05 11:03:15;;;;;;;32.40;21.97;;;18.60;99.90;;;;;;5028872;28;20260;-63
2022/05/05 11:05:45;;;;;;;33.70;22.47;;;18.60;99.90;;;;;;5021351;28;20204;-62
2022/05/05 11:08:32;;;;;;;36.57;22.87;;;18.50;99.90;;;;;;5032777;28;20268;-62
2022/05/05 11:13:48;;;;;;;39.10;24.37;;;18.40;99.90;;;;;;5022923;28;20201;-62
2022/05/05 11:22:24;;;;;;;50.20;29.00;;;18.50;99.90;;;;;;5021327;28;20223;-62
2022/05/05 11:24:54;;;;;;;45.27;28.67;;;18.40;99.90;;;;;;5023651;28;20189;-63
2022/05/05 11:27:24;;;;;;;53.33;30.90;;;18.40;99.90;;;;;;5050147;28;20199;-63
2022/05/05 11:29:54;;;;;;;51.83;30.70;;;18.40;99.90;;;;;;5031189;28;20217;-62
2022/05/05 11:32:29;;;;;;;51.70;29.93;;;18.30;99.90;;;;;;5024327;28;20225;-62
2022/05/05 11:34:57;;;;;;;50.37;30.53;;;18.20;99.90;;;;;;5026576;28;20201;-62
2022/05/05 11:37:29;;;;;;;52.00;29.67;;;18.10;99.90;;;;;;5027807;28;20562;-62
2022/05/05 11:40:02;;;;;;;52.97;31.03;;;18.30;99.90;;;;;;5030066;28;20277;-62
2022/05/05 11:44:14;;;;;;;53.40;29.03;;;18.30;99.90;;;;;;5030414;28;20303;-62
2022/05/05 11:45:19;;;;;;;50.17;28.17;;;18.50;99.90;;;;;;5033304;28;20209;-62
2022/05/05 11:47:48;;;;;;;50.20;28.97;;;18.70;99.90;;;;;;5030970;28;20197;-62
2022/05/05 11:50:17;;;;;;;52.13;28.00;;;18.50;99.90;;;;;;5023871;28;20206;-62
2022/05/05 11:52:47;;;;;;;47.20;28.07;;;18.50;99.90;;;;;;5021771;28;20195;-62
2022/05/05 11:55:19;;;;;;;44.90;27.07;;;18.50;99.90;;;;;;5018714;28;20202;-63
2022/05/05 11:57:50;;;;;;;43.83;27.23;;;18.60;99.90;;;;;;5019630;28;20284;-62
2022/05/05 12:03:06;;;;;;;42.17;24.30;;;19.10;99.90;;;;;;5029600;28;20214;-62
2022/05/05 12:05:35;;;;;;;36.03;23.23;;;19.10;99.90;;;;;;5007054;28;20190;-62
2022/05/05 12:08:05;;;;;;;39.03;23.70;;;19.10;99.90;;;;;;5023677;28;20190;-62
2022/05/05 12:10:36;;;;;;;37.20;23.53;;;18.90;99.90;;;;;;5025555;28;20197;-62
2022/05/05 12:13:06;;;;;;;40.47;24.53;;;18.90;99.90;;;;;;5023238;28;20743;-62
2022/05/05 12:15:35;;;;;;;37.27;22.53;;;18.90;99.90;;;;;;5023823;28;20228;-62
2022/05/05 12:18:14;;;;;;;33.60;20.33;;;19.00;99.90;;;;;;5022173;28;20324;-63
2022/05/05 12:20:44;;;;;;;32.27;21.50;;;19.20;99.90;;;;;;5017495;28;20206;-63
2022/05/05 12:23:13;;;;;;;33.53;20.63;;;19.40;99.90;;;;;;5023552;28;20240;-63
2022/05/05 12:25:44;;;;;;;27.90;18.27;;;19.60;99.90;;;;;;5020502;28;22117;-63
2022/05/05 12:28:13;;;;;;;27.57;18.60;;;19.80;99.90;;;;;;5023894;28;20205;-63
2022/05/05 12:30:43;;;;;;;34.60;19.70;;;20.20;99.90;;;;;;5022712;28;20318;-63
2022/05/05 12:33:13;;;;;;;29.67;18.67;;;20.50;99.90;;;;;;5017677;28;20198;-62
2022/05/05 12:35:42;;;;;;;31.50;18.10;;;20.70;99.90;;;;;;5022479;28;20210;-63
2022/05/05 12:38:13;;;;;;;26.30;17.80;;;20.90;99.90;;;;;;5022903;28;20196;-63
2022/05/05 12:40:44;;;;;;;24.97;16.43;;;21.30;99.90;;;;;;5038003;28;20205;-63
2022/05/05 12:43:14;;;;;;;27.30;16.30;;;21.40;99.90;;;;;;5017937;28;20295;-62
2022/05/05 12:45:42;;;;;;;26.20;15.87;;;21.40;99.90;;;;;;5024022;28;20216;-62
2022/05/05 12:48:11;;;;;;;25.33;16.63;;;21.30;99.90;;;;;;5028860;28;20208;-63
2022/05/05 12:50:44;;;;;;;23.37;15.87;;;21.30;99.90;;;;;;5024678;28;20209;-62
2022/05/05 13:01:40;;;;;;;27.70;19.53;;;20.60;99.90;;;;;;5004548;28;21279;-62
2022/05/05 13:04:14;;;;;;;20.63;16.53;;;20.40;99.90;;;;;;5020769;28;20240;-62
2022/05/05 13:06:44;;;;;;;26.83;17.47;;;20.20;99.90;;;;;;5025195;28;20198;-62
2022/05/05 13:09:15;;;;;;;37.27;21.67;;;20.20;99.90;;;;;;5023666;28;20220;-62
2022/05/05 13:11:46;;;;;;;34.17;21.17;;;20.00;99.90;;;;;;5011779;28;20201;-62
2022/05/05 13:14:15;;;;;;;36.77;21.33;;;19.80;99.90;;;;;;5024009;28;20204;-62
2022/05/05 13:16:44;;;;;;;26.77;18.83;;;19.60;99.90;;;;;;5040935;28;20197;-63
2022/05/05 13:19:13;;;;;;;28.43;17.97;;;19.50;99.90;;;;;;5011479;28;20233;-62
2022/05/05 13:21:41;;;;;;;24.90;17.47;;;19.40;99.90;;;;;;5028161;28;20205;-62
2022/05/05 13:24:11;;;;;;;25.30;17.90;;;19.20;99.90;;;;;;5026739;28;20220;-62
2022/05/05 13:26:46;;;;;;;29.70;18.73;;;19.20;99.90;;;;;;5030353;28;20205;-63
2022/05/05 13:29:14;;;;;;;27.93;18.40;;;19.10;99.90;;;;;;5026223;28;20545;-63
2022/05/05 13:31:43;;;;;;;29.10;19.13;;;19.00;99.90;;;;;;5039201;28;20212;-62
2022/05/05 13:34:11;;;;;;;22.40;17.03;;;18.90;99.90;;;;;;5020682;28;20195;-62
2022/05/05 13:36:40;;;;;;;27.30;15.87;;;18.70;99.90;;;;;;5029418;28;20197;-63
2022/05/05 13:39:11;;;;;;;18.73;13.67;;;18.60;99.90;;;;;;5025155;28;20212;-62
2022/05/05 13:41:40;;;;;;;21.17;13.57;;;18.50;99.90;;;;;;5025376;28;20200;-62
2022/05/05 13:44:10;;;;;;;20.43;13.80;;;18.30;99.90;;;;;;5028887;28;21160;-62
2022/05/05 13:46:40;;;;;;;13.30;11.57;;;18.10;99.90;;;;;;5025364;28;20205;-62
2022/05/05 13:49:09;;;;;;;13.80;10.70;;;17.90;99.90;;;;;;5034130;28;20668;-62
2022/05/05 13:51:38;;;;;;;11.20;10.00;;;17.80;99.90;;;;;;5031731;28;20714;-62
2022/05/05 13:54:27;;;;;;;13.33;11.70;;;17.70;99.90;;;;;;5028788;28;20577;-62
2022/05/05 13:56:55;;;;;;;13.83;11.90;;;17.50;99.90;;;;;;5033348;28;20638;-62
2022/05/05 13:59:25;;;;;;;14.50;11.73;;;17.50;99.90;;;;;;5028853;28;20617;-62
2022/05/05 14:01:54;;;;;;;15.47;11.43;;;17.40;99.90;;;;;;5027398;28;20282;-62
2022/05/05 14:04:23;;;;;;;13.43;11.77;;;17.30;99.90;;;;;;5026332;28;20269;-62
2022/05/05 14:06:51;;;;;;;14.17;10.67;;;17.20;99.90;;;;;;5032271;28;20198;-62
2022/05/05 14:12:15;;;;;;;9.90;8.90;;;17.10;99.90;;;;;;5024543;28;20732;-62
2022/05/05 14:14:45;;;;;;;11.87;9.60;;;17.00;99.90;;;;;;5012320;28;20267;-62
2022/05/05 14:17:15;;;;;;;9.93;8.93;;;17.00;99.90;;;;;;5044104;28;20237;-63
2022/05/05 14:19:44;;;;;;;8.87;8.00;;;17.00;99.90;;;;;;5033042;28;20194;-62
2022/05/05 14:22:13;;;;;;;9.07;8.23;;;17.10;99.90;;;;;;5046268;28;20239;-62
2022/05/05 14:24:42;;;;;;;13.07;11.57;;;17.10;99.90;;;;;;5033542;28;20236;-62
2022/05/05 14:27:10;;;;;;;15.63;12.73;;;17.10;99.90;;;;;;5032922;28;20201;-62
2022/05/05 14:29:39;;;;;;;27.97;22.13;;;17.20;99.90;;;;;;5034851;28;20238;-62
2022/05/05 14:32:09;;;;;;;20.87;14.13;;;17.20;99.90;;;;;;5025436;28;20216;-62
2022/05/05 14:34:38;;;;;;;15.93;11.07;;;17.30;99.90;;;;;;5032372;28;20212;-62
2022/05/05 14:37:09;;;;;;;15.07;10.93;;;17.40;99.90;;;;;;5029766;28;20207;-62
2022/05/05 14:39:37;;;;;;;19.60;12.93;;;17.40;99.90;;;;;;5037392;28;20197;-62
2022/05/05 14:42:10;;;;;;;17.57;14.20;;;17.30;99.90;;;;;;5000685;28;20202;-62
2022/05/05 14:44:38;;;;;;;11.60;9.03;;;17.30;99.90;;;;;;5026739;28;20218;-62
2022/05/05 14:47:12;;;;;;;8.80;8.00;;;17.40;99.90;;;;;;5010493;28;20203;-62
2022/05/05 14:49:43;;;;;;;8.97;8.07;;;17.40;99.90;;;;;;5043264;28;20194;-62
2022/05/05 14:52:11;;;;;;;11.87;10.00;;;17.50;99.90;;;;;;5028803;28;20208;-63
2022/05/05 14:54:41;;;;;;;10.03;8.70;;;17.60;99.90;;;;;;5021624;28;20194;-62
2022/05/05 14:57:11;;;;;;;8.87;7.57;;;17.70;99.90;;;;;;5032709;28;20227;-63
2022/05/05 14:59:40;;;;;;;7.10;6.40;;;17.90;99.90;;;;;;5031742;28;20190;-63
2022/05/05 15:02:11;;;;;;;7.77;7.07;;;18.00;99.90;;;;;;5026795;28;20228;-62
2022/05/05 15:04:41;;;;;;;7.70;6.97;;;18.20;99.90;;;;;;5027793;28;20304;-63
2022/05/05 15:07:14;;;;;;;7.83;7.07;;;18.30;99.90;;;;;;5035432;28;20197;-62
2022/05/05 15:09:43;;;;;;;8.50;7.63;;;18.40;99.90;;;;;;5030866;28;20231;-62
2022/05/05 15:12:12;;;;;;;12.13;9.13;;;18.40;99.90;;;;;;5027018;28;20689;-63
2022/05/05 15:14:43;;;;;;;12.73;9.80;;;18.50;99.90;;;;;;5032071;28;20245;-62
2022/05/05 15:17:14;;;;;;;15.37;10.33;;;18.50;99.90;;;;;;5028917;28;20198;-62
2022/05/05 15:19:43;;;;;;;17.97;12.47;;;18.40;99.90;;;;;;5032855;28;20228;-62
2022/05/05 15:22:13;;;;;;;14.00;11.70;;;18.30;99.90;;;;;;5033499;28;20208;-63